createdAt,value
2019-05-09T00:27:23.885Z,47.87
2019-05-09T00:41:39.966Z,47.99
2019-05-09T01:10:25.250Z,48.10
2019-05-09T01:32:07.743Z,48.50
2019-05-09T01:37:09.704Z,48.78
2019-05-09T01:59:57.219Z,49.44
2019-05-09T02:05:39.527Z,49.20
2019-05-09T02:10:58.704Z,49.37
2019-05-09T02:16:48.715Z,49.42
2019-05-09T02:22:54.285Z,49.40
2019-05-09T02:37:58.891Z,49.42
2019-05-09T03:29:35.436Z,48.66
2019-05-09T03:38:17.905Z,49.16
2019-05-09T03:51:58.612Z,49.42
2019-05-09T04:57:51.293Z,45.75
2019-05-09T05:30:10.372Z,43.79
2019-05-09T05:43:40.536Z,45.33
2019-05-09T05:49:39.887Z,45.59
2019-05-09T05:56:28.829Z,45.57
2019-05-09T06:13:07.963Z,45.28
2019-05-09T06:15:41.639Z,45.68
2019-05-09T06:18:24.513Z,45.74
2019-05-09T06:20:58.452Z,45.87
2019-05-09T06:27:28.113Z,45.93
2019-05-09T06:30:01.067Z,46.26
2019-05-09T06:32:35.103Z,46.06
2019-05-09T06:45:48.652Z,46.06
2019-05-09T06:48:22.588Z,45.91
2019-05-09T06:54:48.718Z,46.51
2019-05-09T06:57:20.030Z,46.47
2019-05-09T06:59:57.891Z,46.73
2019-05-09T07:02:51.340Z,46.46
2019-05-09T07:05:29.097Z,46.22
2019-05-09T07:08:11.720Z,46.19
2019-05-09T07:10:45.387Z,46.40
2019-05-09T07:13:23.227Z,46.14
2019-05-09T07:15:54.429Z,45.98
2019-05-09T07:18:27.751Z,46.14
2019-05-09T07:21:00.628Z,46.34
2019-05-09T07:23:33.284Z,46.29
2019-05-09T07:26:17.684Z,46.08
2019-05-09T07:28:49.394Z,46.27
2019-05-09T07:31:22.142Z,45.84
2019-05-09T07:33:58.752Z,46.34
2019-05-09T07:36:30.105Z,46.18
2019-05-09T07:39:02.961Z,46.12
2019-05-09T07:41:39.447Z,46.22
2019-05-09T07:44:10.636Z,46.23
2019-05-09T07:46:43.329Z,46.05
2019-05-09T07:49:14.565Z,46.01
2019-05-09T07:51:47.635Z,46.31
2019-05-09T07:54:25.212Z,45.76
2019-05-09T07:56:52.768Z,45.62
2019-05-09T07:59:23.865Z,46.00
2019-05-09T08:01:54.909Z,45.82
2019-05-09T08:04:28.562Z,46.01
2019-05-09T08:07:02.899Z,46.39
2019-05-09T08:09:34.063Z,46.14
2019-05-09T08:12:07.370Z,46.14
2019-05-09T08:14:39.645Z,45.68
2019-05-09T08:17:18.246Z,45.59
2019-05-09T08:19:53.200Z,45.73
2019-05-09T08:22:31.806Z,45.40
2019-05-09T08:25:08.233Z,45.23
2019-05-09T08:27:38.770Z,45.34
2019-05-09T08:55:57.886Z,44.45
2019-05-09T09:02:21.864Z,44.79
2019-05-09T09:08:02.657Z,43.90
2019-05-09T09:34:31.981Z,42.83
2019-05-09T09:40:47.591Z,42.76
2019-05-09T09:50:38.410Z,41.66
2019-05-09T09:53:34.003Z,40.46
2019-05-09T09:56:05.135Z,39.04
2019-05-09T09:58:38.980Z,38.95
2019-05-09T10:01:11.825Z,38.58
2019-05-09T10:04:20.797Z,39.06
2019-05-09T10:06:58.236Z,38.96
2019-05-09T10:09:33.883Z,39.23
2019-05-09T10:12:18.051Z,38.74
2019-05-09T10:18:47.529Z,38.58
2019-05-09T10:29:57.795Z,38.72
2019-05-09T10:32:33.745Z,38.45
2019-05-09T10:50:43.141Z,38.65
2019-05-09T10:57:53.589Z,37.86
2019-05-09T11:15:13.108Z,37.03
2019-05-09T11:18:08.379Z,37.23
2019-05-09T11:24:46.564Z,36.99
2019-05-09T11:27:22.801Z,37.72
2019-05-09T11:33:34.922Z,37.82
2019-05-09T11:36:09.720Z,38.08
2019-05-09T11:42:38.955Z,37.51
2019-05-09T11:49:08.192Z,38.21
2019-05-09T11:55:27.479Z,38.42
2019-05-09T12:05:13.204Z,37.82
2019-05-09T12:07:42.427Z,37.70
2019-05-09T12:13:26.743Z,37.80
2019-05-09T12:16:01.186Z,37.58
2019-05-09T12:19:03.606Z,36.76
2019-05-09T12:21:19.629Z,36.62
2019-05-09T12:23:53.545Z,36.94
2019-05-09T12:26:24.613Z,36.99
2019-05-09T12:28:57.775Z,36.98
2019-05-09T12:31:30.167Z,37.33
2019-05-09T12:34:03.712Z,37.38
2019-05-09T12:36:35.706Z,37.69
2019-05-09T12:39:08.725Z,37.35
2019-05-09T12:41:42.087Z,37.01
2019-05-09T12:44:13.183Z,37.25
2019-05-09T12:46:45.547Z,37.52
2019-05-09T12:49:22.209Z,38.06
2019-05-09T12:51:58.861Z,38.15
2019-05-09T12:54:34.516Z,38.42
2019-05-09T12:57:07.926Z,38.42
2019-05-09T12:59:48.573Z,38.11
2019-05-09T13:02:11.355Z,37.79
2019-05-09T13:04:42.408Z,37.71
2019-05-09T13:07:14.309Z,37.79
2019-05-09T13:09:52.238Z,37.43
2019-05-09T13:12:43.079Z,37.57
2019-05-09T13:15:21.477Z,37.98
2019-05-09T13:17:52.595Z,37.85
2019-05-09T13:20:23.662Z,38.25
2019-05-09T13:22:58.847Z,38.12
2019-05-09T13:25:30.294Z,38.07
2019-05-09T13:28:01.776Z,37.64
2019-05-09T13:30:34.521Z,37.30
2019-05-09T13:33:10.562Z,37.56
2019-05-09T13:35:41.416Z,37.60
2019-05-09T13:38:13.406Z,37.54
2019-05-09T13:40:53.449Z,38.00
2019-05-09T13:43:20.447Z,37.80
2019-05-09T13:45:51.583Z,37.93
2019-05-09T13:48:37.837Z,38.52
2019-05-09T13:51:00.814Z,38.31
2019-05-09T13:53:33.579Z,38.58
2019-05-09T13:56:04.691Z,38.93
2019-05-09T13:58:38.286Z,38.77
2019-05-09T14:01:09.832Z,38.90
2019-05-09T14:03:40.884Z,39.06
2019-05-09T14:06:11.984Z,39.41
2019-05-09T14:08:43.934Z,39.33
2019-05-09T14:11:19.220Z,39.63
2019-05-09T14:13:48.734Z,39.53
2019-05-09T14:16:28.698Z,39.32
2019-05-09T14:19:23.972Z,39.48
2019-05-09T14:21:32.922Z,39.87
2019-05-09T14:24:15.178Z,40.08
2019-05-09T14:26:44.005Z,40.56
2019-05-09T14:29:20.123Z,41.20
2019-05-09T14:31:51.842Z,41.67
2019-05-09T14:34:22.066Z,41.76
2019-05-09T14:36:53.163Z,42.30
2019-05-09T14:39:27.678Z,42.26
2019-05-09T14:41:58.926Z,42.88
2019-05-09T14:44:31.524Z,43.28
2019-05-09T14:47:02.636Z,43.33
2019-05-09T14:49:43.287Z,43.29
2019-05-09T14:52:08.108Z,43.84
2019-05-09T14:54:42.613Z,43.61
2019-05-09T14:57:17.374Z,43.50
2019-05-09T14:59:48.041Z,43.68
2019-05-09T15:02:19.092Z,44.01
2019-05-09T15:04:50.186Z,44.76
2019-05-09T15:07:21.341Z,44.89
2019-05-09T15:09:54.025Z,45.10
2019-05-09T15:12:28.502Z,45.49
2019-05-09T15:14:59.889Z,45.67
2019-05-09T15:17:32.608Z,46.03
2019-05-09T15:20:04.718Z,45.97
2019-05-09T15:22:38.719Z,46.42
2019-05-09T15:25:12.056Z,46.75
2019-05-09T15:27:44.271Z,46.95
2019-05-09T15:30:18.859Z,47.38
2019-05-09T15:32:51.807Z,48.07
2019-05-09T15:35:22.577Z,48.42
2019-05-09T15:37:53.639Z,48.68
2019-05-09T15:40:28.198Z,48.74
2019-05-09T15:43:04.018Z,49.03
2019-05-09T15:45:40.896Z,49.05
2019-05-09T15:48:09.531Z,49.55
2019-05-09T15:50:42.314Z,50.11
2019-05-09T15:53:13.541Z,51.20
2019-05-09T15:55:58.888Z,51.11
2019-05-09T15:58:31.575Z,51.59
2019-05-09T16:01:04.371Z,52.15
2019-05-09T16:03:38.899Z,52.26
2019-05-09T16:06:12.428Z,52.48
2019-05-09T16:08:43.534Z,52.43
2019-05-09T16:11:18.483Z,52.51
2019-05-09T16:13:49.757Z,52.89
2019-05-09T16:16:21.222Z,53.02
2019-05-09T16:18:52.274Z,53.35
2019-05-09T16:21:24.759Z,53.89
2019-05-09T16:23:59.978Z,54.07
2019-05-09T16:26:37.573Z,54.52
2019-05-09T16:29:05.369Z,54.50
2019-05-09T16:31:38.768Z,55.15
2019-05-09T16:34:12.760Z,56.03
2019-05-09T16:36:52.653Z,56.42
2019-05-09T16:39:20.452Z,56.60
2019-05-09T16:41:54.724Z,56.84
2019-05-09T16:44:25.867Z,56.83
2019-05-09T16:47:04.422Z,56.63
2019-05-09T16:49:32.476Z,57.66
2019-05-09T16:52:03.757Z,58.13
2019-05-09T16:54:38.623Z,58.71
2019-05-09T16:57:13.184Z,58.43
2019-05-09T16:59:47.764Z,58.89
2019-05-09T17:02:24.798Z,59.36
2019-05-09T17:05:02.696Z,59.42
2019-05-09T17:07:34.907Z,59.91
2019-05-09T17:13:49.782Z,60.31
2019-05-09T17:16:28.487Z,60.43
2019-05-09T17:19:06.037Z,60.81
2019-05-09T17:21:50.663Z,60.70
2019-05-09T17:28:13.037Z,60.84
2019-05-09T17:30:49.341Z,60.35
2019-05-09T17:33:21.231Z,60.17
2019-05-09T17:35:57.819Z,60.73
2019-05-09T17:38:32.662Z,61.12
2019-05-09T17:41:08.452Z,61.40
2019-05-09T17:43:39.727Z,61.87
2019-05-09T17:46:12.730Z,62.67
2019-05-09T17:48:49.075Z,63.56
2019-05-09T17:51:33.058Z,64.49
2019-05-09T17:53:58.563Z,64.46
2019-05-09T17:56:50.028Z,63.48
2019-05-09T17:59:11.481Z,64.23
2019-05-09T18:01:48.246Z,64.05
2019-05-09T18:04:22.414Z,63.79
2019-05-09T18:07:00.801Z,63.35
2019-05-09T18:09:42.276Z,63.42
2019-05-09T18:12:22.520Z,64.38
2019-05-09T18:14:55.340Z,65.00
2019-05-09T18:17:40.544Z,64.90
2019-05-09T18:20:17.415Z,64.91
2019-05-09T18:22:52.195Z,64.83
2019-05-09T18:29:06.832Z,64.65
2019-05-09T18:31:41.800Z,65.19
2019-05-09T18:34:18.484Z,65.15
2019-05-09T18:36:58.611Z,64.93
2019-05-09T18:39:30.870Z,64.83
2019-05-09T18:42:05.014Z,64.60
2019-05-09T18:44:39.972Z,65.06
2019-05-09T18:47:13.315Z,65.37
2019-05-09T18:49:56.450Z,66.10
2019-05-09T18:52:25.995Z,67.17
2019-05-09T18:55:01.214Z,67.52
2019-05-09T18:57:43.939Z,68.22
2019-05-09T19:00:46.066Z,71.16
2019-05-09T19:03:16.705Z,71.81
2019-05-09T19:07:19.940Z,71.75
2019-05-09T19:08:42.738Z,72.43
2019-05-09T19:11:16.690Z,72.66
2019-05-09T19:14:04.437Z,71.83
2019-05-09T19:19:32.500Z,72.75
2019-05-09T19:25:09.802Z,72.93
2019-05-09T19:27:58.046Z,72.62
2019-05-09T19:33:09.786Z,74.81
2019-05-09T19:35:46.143Z,74.46
2019-05-09T19:38:29.672Z,74.64
2019-05-09T19:43:31.003Z,75.76
2019-05-09T19:46:03.778Z,75.80
2019-05-09T19:48:52.472Z,76.05
2019-05-09T19:51:25.890Z,75.69
2019-05-09T19:53:53.642Z,75.60
2019-05-09T19:56:36.380Z,75.95
2019-05-09T19:59:20.299Z,75.21
2019-05-09T20:02:13.872Z,75.19
2019-05-09T20:04:26.800Z,74.97
2019-05-09T20:07:07.914Z,75.50
2019-05-09T20:09:58.790Z,75.32
2019-05-09T20:12:37.541Z,75.17
2019-05-09T20:15:42.749Z,75.22
2019-05-09T20:17:47.753Z,74.85
2019-05-09T20:20:26.104Z,74.93
2019-05-09T20:23:07.761Z,74.75
2019-05-09T20:29:19.754Z,76.00
2019-05-09T20:31:59.527Z,75.74
2019-05-09T20:34:35.753Z,75.76
2019-05-09T20:37:26.362Z,75.59
2019-05-09T20:39:46.182Z,76.12
2019-05-09T20:42:36.449Z,76.80
2019-05-09T20:44:58.556Z,77.31
2019-05-09T20:47:31.369Z,77.62
2019-05-09T20:50:07.292Z,77.81
2019-05-09T20:52:45.992Z,77.76
2019-05-09T20:55:27.694Z,77.46
2019-05-09T20:58:12.847Z,77.79
2019-05-09T21:02:08.780Z,78.86
2019-05-09T21:03:22.764Z,78.73
2019-05-09T21:05:58.348Z,79.31
2019-05-09T21:08:38.004Z,80.13
2019-05-09T21:11:08.750Z,80.71
2019-05-09T21:13:48.966Z,81.04
2019-05-09T21:19:04.517Z,81.11
2019-05-09T21:19:39.024Z,81.11
2019-05-09T21:21:43.003Z,81.09
2019-05-09T21:24:19.210Z,81.62
2019-05-09T21:26:53.581Z,82.06
2019-05-09T21:29:29.706Z,82.05
2019-05-09T21:32:09.446Z,81.00
2019-05-09T21:49:26.724Z,81.61
2019-05-09T21:51:57.949Z,82.31
2019-05-09T21:54:30.367Z,82.36
2019-05-09T22:51:36.312Z,83.62
